sensor_id;sensor_type;location;lat;lon;timestamp;temperature;humidity
65995;HTU21D;52764;51.036;5.852;2022-11-21T00:00:41;-1.44;79.24
65995;HTU21D;52764;51.036;5.852;2022-11-21T00:03:09;8.81;79.23
65995;HTU21D;52764;51.036;5.852;2022-11-21T00:05:39;8.74;79.33
65995;HTU21D;52764;51.036;5.852;2022-11-21T00:08:16;9.37;79.41
65995;HTU21D;52764;51.036;5.852;2022-11-21T00:10:44;8.70;79.49
65995;HTU21D;52764;51.036;5.852;2022-11-21T00:13:18;8.68;79.60
65995;HTU21D;52764;51.036;5.852;2022-11-21T00:15:45;-23.66;79.71
65995;HTU21D;52764;51.036;5.852;2022-11-21T00:18:11;8.66;79.72
65995;HTU21D;52764;51.036;5.852;2022-11-21T00:20:38;8.65;79.76
65995;HTU21D;52764;51.036;5.852;2022-11-21T00:23:04;8.65;79.85
65995;HTU21D;52764;51.036;5.852;2022-11-21T00:25:30;8.63;79.90
65995;HTU21D;52764;51.036;5.852;2022-11-21T00:27:56;8.67;79.96
65995;HTU21D;52764;51.036;5.852;2022-11-21T00:30:21;8.70;79.94
65995;HTU21D;52764;51.036;5.852;2022-11-21T00:32:47;8.72;79.83
65995;HTU21D;52764;51.036;5.852;2022-11-21T00:35:13;8.65;79.98
65995;HTU21D;52764;51.036;5.852;2022-11-21T00:37:39;8.66;79.95
65995;HTU21D;52764;51.036;5.852;2022-11-21T00:40:06;8.72;79.65
65995;HTU21D;52764;51.036;5.852;2022-11-21T00:42:31;8.77;79.40
65995;HTU21D;52764;51.036;5.852;2022-11-21T00:44:57;8.81;79.27
65995;HTU21D;52764;51.036;5.852;2022-11-21T00:47:23;8.88;79.18
65995;HTU21D;52764;51.036;5.852;2022-11-21T00:49:49;8.92;78.91
65995;HTU21D;52764;51.036;5.852;2022-11-21T00:52:15;8.92;78.79
65995;HTU21D;52764;51.036;5.852;2022-11-21T00:54:41;8.94;67.32
65995;HTU21D;52764;51.036;5.852;2022-11-21T00:57:07;9.07;78.69
65995;HTU21D;52764;51.036;5.852;2022-11-21T00:59:33;8.86;78.67
65995;HTU21D;52764;51.036;5.852;2022-11-21T01:01:59;-1.40;78.75
65995;HTU21D;52764;51.036;5.852;2022-11-21T01:04:25;8.75;78.84
65995;HTU21D;52764;51.036;5.852;2022-11-21T01:06:50;8.65;79.31
65995;HTU21D;52764;51.036;5.852;2022-11-21T01:09:16;9.14;79.54
65995;HTU21D;52764;51.036;5.852;2022-11-21T01:11:42;8.53;79.71
65995;HTU21D;52764;51.036;5.852;2022-11-21T01:14:07;8.41;79.91
65995;HTU21D;52764;51.036;5.852;2022-11-21T01:16:33;8.45;80.01
65995;HTU21D;52764;51.036;5.852;2022-11-21T01:18:59;8.46;79.81
65995;HTU21D;52764;51.036;5.852;2022-11-21T01:21:29;8.07;80.04
65995;HTU21D;52764;51.036;5.852;2022-11-21T01:23:58;8.35;80.11
65995;HTU21D;52764;51.036;5.852;2022-11-21T01:26:26;8.34;80.33
65995;HTU21D;52764;51.036;5.852;2022-11-21T01:28:52;8.32;80.95
65995;HTU21D;52764;51.036;5.852;2022-11-21T01:31:23;8.30;80.47
65995;HTU21D;52764;51.036;5.852;2022-11-21T01:33:50;8.29;80.59
65995;HTU21D;52764;51.036;5.852;2022-11-21T01:36:17;8.29;80.65
65995;HTU21D;52764;51.036;5.852;2022-11-21T01:38:48;8.30;80.64
65995;HTU21D;52764;51.036;5.852;2022-11-21T01:41:17;8.29;80.60
65995;HTU21D;52764;51.036;5.852;2022-11-21T01:43:43;8.34;80.62
65995;HTU21D;52764;51.036;5.852;2022-11-21T01:46:12;8.41;80.46
65995;HTU21D;52764;51.036;5.852;2022-11-21T01:51:31;8.56;79.82
65995;HTU21D;52764;51.036;5.852;2022-11-21T01:56:43;8.58;79.24
65995;HTU21D;52764;51.036;5.852;2022-11-21T01:59:17;8.53;79.24
65995;HTU21D;52764;51.036;5.852;2022-11-21T02:01:47;8.49;79.24
65995;HTU21D;52764;51.036;5.852;2022-11-21T02:04:16;-24.13;79.28
65995;HTU21D;52764;51.036;5.852;2022-11-21T02:06:43;8.41;79.23
65995;HTU21D;52764;51.036;5.852;2022-11-21T02:09:09;8.39;79.30
65995;HTU21D;52764;51.036;5.852;2022-11-21T02:11:50;8.37;79.26
65995;HTU21D;52764;51.036;5.852;2022-11-21T02:14:17;8.35;79.41
65995;HTU21D;52764;51.036;5.852;2022-11-21T02:16:43;8.64;79.44
65995;HTU21D;52764;51.036;5.852;2022-11-21T02:19:21;-24.33;79.57
65995;HTU21D;52764;51.036;5.852;2022-11-21T02:21:54;8.39;79.74
65995;HTU21D;52764;51.036;5.852;2022-11-21T02:24:46;8.46;79.65
65995;HTU21D;52764;51.036;5.852;2022-11-21T02:27:15;8.51;79.65
65995;HTU21D;52764;51.036;5.852;2022-11-21T02:29:42;8.56;79.60
65995;HTU21D;52764;51.036;5.852;2022-11-21T02:32:08;8.62;79.49
65995;HTU21D;52764;51.036;5.852;2022-11-21T02:34:33;8.72;79.23
65995;HTU21D;52764;51.036;5.852;2022-11-21T02:37:01;8.79;78.82
65995;HTU21D;52764;51.036;5.852;2022-11-21T02:39:33;8.76;78.41
65995;HTU21D;52764;51.036;5.852;2022-11-21T02:42:13;8.67;78.31
65995;HTU21D;52764;51.036;5.852;2022-11-21T02:45:24;8.62;78.77
65995;HTU21D;52764;51.036;5.852;2022-11-21T02:47:30;8.64;78.92
65995;HTU21D;52764;51.036;5.852;2022-11-21T02:52:34;8.76;76.90
65995;HTU21D;52764;51.036;5.852;2022-11-21T02:55:00;8.77;78.27
65995;HTU21D;52764;51.036;5.852;2022-11-21T02:57:25;8.77;78.37
65995;HTU21D;52764;51.036;5.852;2022-11-21T02:59:51;8.81;78.43
65995;HTU21D;52764;51.036;5.852;2022-11-21T03:02:17;8.83;78.29
65995;HTU21D;52764;51.036;5.852;2022-11-21T03:04:42;8.86;78.32
65995;HTU21D;52764;51.036;5.852;2022-11-21T03:07:08;8.91;78.29
65995;HTU21D;52764;51.036;5.852;2022-11-21T03:09:34;8.95;78.06
65995;HTU21D;52764;51.036;5.852;2022-11-21T03:12:05;8.93;78.11
65995;HTU21D;52764;51.036;5.852;2022-11-21T03:14:32;8.93;78.08
65995;HTU21D;52764;51.036;5.852;2022-11-21T03:16:58;8.81;78.13
65995;HTU21D;52764;51.036;5.852;2022-11-21T03:19:23;9.29;78.57
65995;HTU21D;52764;51.036;5.852;2022-11-21T03:21:49;8.60;67.59
65995;HTU21D;52764;51.036;5.852;2022-11-21T03:24:15;-23.98;78.99
65995;HTU21D;52764;51.036;5.852;2022-11-21T03:26:40;8.44;79.27
65995;HTU21D;52764;51.036;5.852;2022-11-21T03:29:06;8.41;79.43
65995;HTU21D;52764;51.036;5.852;2022-11-21T03:31:32;8.34;79.76
65995;HTU21D;52764;51.036;5.852;2022-11-21T03:33:58;8.32;79.78
65995;HTU21D;52764;51.036;5.852;2022-11-21T03:36:23;8.30;79.71
65995;HTU21D;52764;51.036;5.852;2022-11-21T03:38:49;8.24;79.84
65995;HTU21D;52764;51.036;5.852;2022-11-21T03:41:15;8.23;79.95
65995;HTU21D;52764;51.036;5.852;2022-11-21T03:46:22;8.53;80.07
65995;HTU21D;52764;51.036;5.852;2022-11-21T03:48:47;8.16;80.25
65995;HTU21D;52764;51.036;5.852;2022-11-21T03:51:13;8.13;80.38
65995;HTU21D;52764;51.036;5.852;2022-11-21T03:53:39;8.11;80.38
65995;HTU21D;52764;51.036;5.852;2022-11-21T03:56:05;8.12;80.36
65995;HTU21D;52764;51.036;5.852;2022-11-21T03:58:31;8.08;80.49
65995;HTU21D;52764;51.036;5.852;2022-11-21T04:00:56;8.03;81.66
65995;HTU21D;52764;51.036;5.852;2022-11-21T04:03:22;7.98;81.17
65995;HTU21D;52764;51.036;5.852;2022-11-21T04:05:48;7.96;81.36
65995;HTU21D;52764;51.036;5.852;2022-11-21T04:08:13;7.96;81.46
65995;HTU21D;52764;51.036;5.852;2022-11-21T04:10:46;7.94;81.63
65995;HTU21D;52764;51.036;5.852;2022-11-21T04:13:12;-3.52;81.68
65995;HTU21D;52764;51.036;5.852;2022-11-21T04:15:37;7.96;81.64
65995;HTU21D;52764;51.036;5.852;2022-11-21T04:18:03;7.98;81.43
65995;HTU21D;52764;51.036;5.852;2022-11-21T04:20:29;7.96;81.36
65995;HTU21D;52764;51.036;5.852;2022-11-21T04:22:54;7.92;83.20
65995;HTU21D;52764;51.036;5.852;2022-11-21T04:25:20;7.92;81.56
65995;HTU21D;52764;51.036;5.852;2022-11-21T04:27:45;7.90;81.68
65995;HTU21D;52764;51.036;5.852;2022-11-21T04:30:11;7.82;82.12
65995;HTU21D;52764;51.036;5.852;2022-11-21T04:32:37;7.79;82.26
65995;HTU21D;52764;51.036;5.852;2022-11-21T04:35:03;7.84;80.30
65995;HTU21D;52764;51.036;5.852;2022-11-21T04:37:28;7.85;82.13
65995;HTU21D;52764;51.036;5.852;2022-11-21T04:39:54;7.85;81.98
65995;HTU21D;52764;51.036;5.852;2022-11-21T04:42:20;7.86;81.85
65995;HTU21D;52764;51.036;5.852;2022-11-21T04:44:46;7.83;81.89
65995;HTU21D;52764;51.036;5.852;2022-11-21T04:47:11;-25.49;81.88
65995;HTU21D;52764;51.036;5.852;2022-11-21T04:49:37;7.81;76.44
65995;HTU21D;52764;51.036;5.852;2022-11-21T04:52:03;7.88;82.20
65995;HTU21D;52764;51.036;5.852;2022-11-21T04:54:28;7.96;82.17
65995;HTU21D;52764;51.036;5.852;2022-11-21T04:56:54;8.03;82.16
65995;HTU21D;52764;51.036;5.852;2022-11-21T04:59:20;8.05;82.20
65995;HTU21D;52764;51.036;5.852;2022-11-21T05:01:46;8.03;82.59
65995;HTU21D;52764;51.036;5.852;2022-11-21T05:04:11;8.07;82.72
65995;HTU21D;52764;51.036;5.852;2022-11-21T05:06:37;-24.80;82.71
65995;HTU21D;52764;51.036;5.852;2022-11-21T05:09:03;8.16;82.58
65995;HTU21D;52764;51.036;5.852;2022-11-21T05:11:29;8.15;82.54
65995;HTU21D;52764;51.036;5.852;2022-11-21T05:14:13;8.19;82.61
65995;HTU21D;52764;51.036;5.852;2022-11-21T05:16:38;8.24;81.10
65995;HTU21D;52764;51.036;5.852;2022-11-21T05:19:04;8.29;82.37
65995;HTU21D;52764;51.036;5.852;2022-11-21T05:21:30;8.62;82.32
65995;HTU21D;52764;51.036;5.852;2022-11-21T05:23:55;-2.28;82.39
65995;HTU21D;52764;51.036;5.852;2022-11-21T05:26:21;8.43;82.32
65995;HTU21D;52764;51.036;5.852;2022-11-21T05:28:47;8.48;82.17
65995;HTU21D;52764;51.036;5.852;2022-11-21T05:31:13;8.53;82.04
65995;HTU21D;52764;51.036;5.852;2022-11-21T05:33:38;8.55;82.01
65995;HTU21D;52764;51.036;5.852;2022-11-21T05:36:04;8.59;81.89
65995;HTU21D;52764;51.036;5.852;2022-11-21T05:38:30;8.65;81.64
65995;HTU21D;52764;51.036;5.852;2022-11-21T05:40:55;8.60;75.92
65995;HTU21D;52764;51.036;5.852;2022-11-21T05:43:21;8.57;82.17
65995;HTU21D;52764;51.036;5.852;2022-11-21T05:46:05;8.55;82.42
65995;HTU21D;52764;51.036;5.852;2022-11-21T05:48:31;8.55;82.62
65995;HTU21D;52764;51.036;5.852;2022-11-21T05:50:58;8.51;82.61
65995;HTU21D;52764;51.036;5.852;2022-11-21T05:53:24;8.49;82.85
65995;HTU21D;52764;51.036;5.852;2022-11-21T05:55:50;8.47;82.99
65995;HTU21D;52764;51.036;5.852;2022-11-21T05:58:15;-24.16;83.30
65995;HTU21D;52764;51.036;5.852;2022-11-21T06:00:41;8.42;83.52
65995;HTU21D;52764;51.036;5.852;2022-11-21T06:03:09;8.39;83.42
65995;HTU21D;52764;51.036;5.852;2022-11-21T06:08:40;8.34;83.85
65995;HTU21D;52764;51.036;5.852;2022-11-21T06:11:08;8.33;83.84
65995;HTU21D;52764;51.036;5.852;2022-11-21T06:13:34;8.35;83.95
65995;HTU21D;52764;51.036;5.852;2022-11-21T06:16:12;8.34;83.78
65995;HTU21D;52764;51.036;5.852;2022-11-21T06:18:41;8.36;83.64
65995;HTU21D;52764;51.036;5.852;2022-11-21T06:21:08;8.39;83.47
65995;HTU21D;52764;51.036;5.852;2022-11-21T06:23:35;8.37;83.43
65995;HTU21D;52764;51.036;5.852;2022-11-21T06:26:02;8.37;83.52
65995;HTU21D;52764;51.036;5.852;2022-11-21T06:28:37;8.42;83.17
65995;HTU21D;52764;51.036;5.852;2022-11-21T06:31:09;8.38;83.09
65995;HTU21D;52764;51.036;5.852;2022-11-21T06:33:36;8.39;83.06
65995;HTU21D;52764;51.036;5.852;2022-11-21T06:36:15;8.42;82.92
65995;HTU21D;52764;51.036;5.852;2022-11-21T06:38:43;8.41;83.13
65995;HTU21D;52764;51.036;5.852;2022-11-21T06:41:10;8.90;83.07
65995;HTU21D;52764;51.036;5.852;2022-11-21T06:43:36;8.44;83.55
65995;HTU21D;52764;51.036;5.852;2022-11-21T06:46:02;8.44;83.67
65995;HTU21D;52764;51.036;5.852;2022-11-21T06:48:30;8.43;83.68
65995;HTU21D;52764;51.036;5.852;2022-11-21T06:50:55;8.42;83.69
65995;HTU21D;52764;51.036;5.852;2022-11-21T06:53:21;8.45;83.65
65995;HTU21D;52764;51.036;5.852;2022-11-21T06:55:47;8.42;83.63
65995;HTU21D;52764;51.036;5.852;2022-11-21T06:58:12;8.43;83.38
65995;HTU21D;52764;51.036;5.852;2022-11-21T07:00:38;8.41;83.55
65995;HTU21D;52764;51.036;5.852;2022-11-21T07:03:04;8.43;83.44
65995;HTU21D;52764;51.036;5.852;2022-11-21T07:05:30;8.51;83.10
65995;HTU21D;52764;51.036;5.852;2022-11-21T07:08:02;8.55;82.94
65995;HTU21D;52764;51.036;5.852;2022-11-21T07:10:29;8.56;82.73
65995;HTU21D;52764;51.036;5.852;2022-11-21T07:12:59;8.59;82.55
65995;HTU21D;52764;51.036;5.852;2022-11-21T07:15:44;-0.65;82.48
65995;HTU21D;52764;51.036;5.852;2022-11-21T07:18:11;8.65;82.31
65995;HTU21D;52764;51.036;5.852;2022-11-21T07:20:38;8.64;82.23
65995;HTU21D;52764;51.036;5.852;2022-11-21T07:23:04;8.62;82.20
65995;HTU21D;52764;51.036;5.852;2022-11-21T07:25:30;8.60;82.16
65995;HTU21D;52764;51.036;5.852;2022-11-21T07:28:00;8.63;82.07
65995;HTU21D;52764;51.036;5.852;2022-11-21T07:30:26;8.62;82.18
65995;HTU21D;52764;51.036;5.852;2022-11-21T07:32:56;8.63;82.07
65995;HTU21D;52764;51.036;5.852;2022-11-21T07:35:22;8.65;81.94
65995;HTU21D;52764;51.036;5.852;2022-11-21T07:37:47;8.66;81.86
65995;HTU21D;52764;51.036;5.852;2022-11-21T07:40:13;8.66;81.97
65995;HTU21D;52764;51.036;5.852;2022-11-21T07:42:39;9.33;82.01
65995;HTU21D;52764;51.036;5.852;2022-11-21T07:45:05;8.71;76.15
65995;HTU21D;52764;51.036;5.852;2022-11-21T07:47:30;8.73;81.87
65995;HTU21D;52764;51.036;5.852;2022-11-21T07:49:56;8.78;81.64
65995;HTU21D;52764;51.036;5.852;2022-11-21T07:52:22;8.82;81.62
65995;HTU21D;52764;51.036;5.852;2022-11-21T07:54:48;9.75;81.64
65995;HTU21D;52764;51.036;5.852;2022-11-21T07:57:13;8.86;81.75
65995;HTU21D;52764;51.036;5.852;2022-11-21T07:59:39;8.92;81.27
65995;HTU21D;52764;51.036;5.852;2022-11-21T08:02:05;-23.10;80.98
65995;HTU21D;52764;51.036;5.852;2022-11-21T08:04:31;9.02;80.78
65995;HTU21D;52764;51.036;5.852;2022-11-21T08:06:56;9.05;80.80
65995;HTU21D;52764;51.036;5.852;2022-11-21T08:09:27;10.12;80.65
65995;HTU21D;52764;51.036;5.852;2022-11-21T08:11:53;9.18;80.46
65995;HTU21D;52764;51.036;5.852;2022-11-21T08:14:19;9.24;80.32
65995;HTU21D;52764;51.036;5.852;2022-11-21T08:16:44;9.31;80.03
65995;HTU21D;52764;51.036;5.852;2022-11-21T08:19:10;9.38;79.66
65995;HTU21D;52764;51.036;5.852;2022-11-21T08:21:36;9.35;79.58
65995;HTU21D;52764;51.036;5.852;2022-11-21T08:24:01;10.77;79.53
65995;HTU21D;52764;51.036;5.852;2022-11-21T08:26:27;9.47;79.08
65995;HTU21D;52764;51.036;5.852;2022-11-21T08:28:53;9.46;78.79
65995;HTU21D;52764;51.036;5.852;2022-11-21T08:31:19;9.44;78.69
65995;HTU21D;52764;51.036;5.852;2022-11-21T08:33:44;9.37;78.81
65995;HTU21D;52764;51.036;5.852;2022-11-21T08:36:10;9.34;70.16
65995;HTU21D;52764;51.036;5.852;2022-11-21T08:38:36;9.31;77.87
65995;HTU21D;52764;51.036;5.852;2022-11-21T08:41:01;9.35;78.67
65995;HTU21D;52764;51.036;5.852;2022-11-21T08:43:45;9.31;79.06
65995;HTU21D;52764;51.036;5.852;2022-11-21T08:46:11;9.32;79.07
65995;HTU21D;52764;51.036;5.852;2022-11-21T08:48:37;9.34;78.85
65995;HTU21D;52764;51.036;5.852;2022-11-21T08:51:02;9.34;78.66
65995;HTU21D;52764;51.036;5.852;2022-11-21T08:53:28;9.29;79.11
65995;HTU21D;52764;51.036;5.852;2022-11-21T08:55:54;9.31;79.27
65995;HTU21D;52764;51.036;5.852;2022-11-21T08:58:20;9.34;78.98
65995;HTU21D;52764;51.036;5.852;2022-11-21T09:00:45;9.33;78.91
65995;HTU21D;52764;51.036;5.852;2022-11-21T09:03:11;9.31;78.82
65995;HTU21D;52764;51.036;5.852;2022-11-21T09:05:37;9.40;78.50
65995;HTU21D;52764;51.036;5.852;2022-11-21T09:08:02;9.44;78.64
65995;HTU21D;52764;51.036;5.852;2022-11-21T09:10:28;9.48;78.33
65995;HTU21D;52764;51.036;5.852;2022-11-21T09:12:57;9.51;78.27
65995;HTU21D;52764;51.036;5.852;2022-11-21T09:15:24;9.54;77.78
65995;HTU21D;52764;51.036;5.852;2022-11-21T09:18:10;9.55;77.37
65995;HTU21D;52764;51.036;5.852;2022-11-21T09:20:41;9.54;77.24
65995;HTU21D;52764;51.036;5.852;2022-11-21T09:23:09;9.53;74.46
65995;HTU21D;52764;51.036;5.852;2022-11-21T09:25:36;9.56;77.21
65995;HTU21D;52764;51.036;5.852;2022-11-21T09:28:03;9.56;66.44
65995;HTU21D;52764;51.036;5.852;2022-11-21T09:30:29;9.60;76.86
65995;HTU21D;52764;51.036;5.852;2022-11-21T09:33:03;-21.80;76.70
65995;HTU21D;52764;51.036;5.852;2022-11-21T09:35:29;9.64;76.74
65995;HTU21D;52764;51.036;5.852;2022-11-21T09:37:55;9.68;76.61
65995;HTU21D;52764;51.036;5.852;2022-11-21T09:40:21;9.72;76.34
65995;HTU21D;52764;51.036;5.852;2022-11-21T09:46:28;9.76;76.09
65995;HTU21D;52764;51.036;5.852;2022-11-21T09:49:05;9.80;75.99
65995;HTU21D;52764;51.036;5.852;2022-11-21T09:51:33;9.82;75.70
65995;HTU21D;52764;51.036;5.852;2022-11-21T09:54:15;9.81;75.85
65995;HTU21D;52764;51.036;5.852;2022-11-21T09:56:42;9.84;76.04
65995;HTU21D;52764;51.036;5.852;2022-11-21T09:59:17;9.80;75.78
65995;HTU21D;52764;51.036;5.852;2022-11-21T10:01:47;9.98;75.77
65995;HTU21D;52764;51.036;5.852;2022-11-21T10:04:13;10.08;75.49
65995;HTU21D;52764;51.036;5.852;2022-11-21T10:07:01;10.10;75.22
65995;HTU21D;52764;51.036;5.852;2022-11-21T10:15:28;10.28;75.06
65995;HTU21D;52764;51.036;5.852;2022-11-21T10:23:53;10.45;74.44
65995;HTU21D;52764;51.036;5.852;2022-11-21T10:26:43;12.97;73.98
65995;HTU21D;52764;51.036;5.852;2022-11-21T10:29:36;10.62;73.55
65995;HTU21D;52764;51.036;5.852;2022-11-21T10:32:27;10.70;73.22
65995;HTU21D;52764;51.036;5.852;2022-11-21T10:34:57;10.72;72.71
65995;HTU21D;52764;51.036;5.852;2022-11-21T10:37:35;10.75;72.10
65995;HTU21D;52764;51.036;5.852;2022-11-21T10:42:57;10.80;71.32
65995;HTU21D;52764;51.036;5.852;2022-11-21T10:45:24;13.47;71.06
65995;HTU21D;52764;51.036;5.852;2022-11-21T10:47:52;10.80;70.74
65995;HTU21D;52764;51.036;5.852;2022-11-21T10:50:26;10.83;70.38
65995;HTU21D;52764;51.036;5.852;2022-11-21T10:56:04;10.90;84.02
65995;HTU21D;52764;51.036;5.852;2022-11-21T11:06:33;11.15;69.67
65995;HTU21D;52764;51.036;5.852;2022-11-21T11:08:59;11.19;69.52
65995;HTU21D;52764;51.036;5.852;2022-11-21T11:11:25;11.62;69.34
65995;HTU21D;52764;51.036;5.852;2022-11-21T11:14:03;11.71;69.44
65995;HTU21D;52764;51.036;5.852;2022-11-21T11:16:31;11.29;69.41
65995;HTU21D;52764;51.036;5.852;2022-11-21T11:31:41;11.63;69.36
65995;HTU21D;52764;51.036;5.852;2022-11-21T11:34:11;11.15;69.36
65995;HTU21D;52764;51.036;5.852;2022-11-21T11:36:47;11.12;69.39
65995;HTU21D;52764;51.036;5.852;2022-11-21T11:42:06;11.07;69.50
65995;HTU21D;52764;51.036;5.852;2022-11-21T11:48:03;11.04;69.43
65995;HTU21D;52764;51.036;5.852;2022-11-21T11:50:38;11.00;69.34
65995;HTU21D;52764;51.036;5.852;2022-11-21T11:53:44;10.97;69.47
65995;HTU21D;52764;51.036;5.852;2022-11-21T11:56:23;10.96;69.60
65995;HTU21D;52764;51.036;5.852;2022-11-21T12:01:52;11.01;69.42
65995;HTU21D;52764;51.036;5.852;2022-11-21T12:04:21;11.11;69.88
65995;HTU21D;52764;51.036;5.852;2022-11-21T12:07:16;11.16;69.55
65995;HTU21D;52764;51.036;5.852;2022-11-21T12:12:27;11.97;69.44
65995;HTU21D;52764;51.036;5.852;2022-11-21T12:15:16;11.45;68.94
65995;HTU21D;52764;51.036;5.852;2022-11-21T12:21:12;9.63;68.78
65995;HTU21D;52764;51.036;5.852;2022-11-21T12:23:52;11.73;68.56
65995;HTU21D;52764;51.036;5.852;2022-11-21T12:29:17;11.88;67.20
65995;HTU21D;52764;51.036;5.852;2022-11-21T12:37:08;11.94;66.21
65995;HTU21D;52764;51.036;5.852;2022-11-21T12:40:06;11.90;66.10
65995;HTU21D;52764;51.036;5.852;2022-11-21T12:51:11;10.85;65.39
65995;HTU21D;52764;51.036;5.852;2022-11-21T12:57:14;12.21;65.15
65995;HTU21D;52764;51.036;5.852;2022-11-21T12:59:52;12.17;65.16
65995;HTU21D;52764;51.036;5.852;2022-11-21T13:03:00;12.13;65.14
65995;HTU21D;52764;51.036;5.852;2022-11-21T13:05:36;12.15;65.46
65995;HTU21D;52764;51.036;5.852;2022-11-21T13:10:58;12.03;65.14
65995;HTU21D;52764;51.036;5.852;2022-11-21T13:14:27;11.94;65.02
65995;HTU21D;52764;51.036;5.852;2022-11-21T13:17:19;11.84;65.02
65995;HTU21D;52764;51.036;5.852;2022-11-21T13:19:49;11.81;64.96
65995;HTU21D;52764;51.036;5.852;2022-11-21T13:27:41;11.67;66.09
65995;HTU21D;52764;51.036;5.852;2022-11-21T13:32:41;11.72;66.49
65995;HTU21D;52764;51.036;5.852;2022-11-21T13:45:48;11.41;67.53
65995;HTU21D;52764;51.036;5.852;2022-11-21T13:53:38;11.38;67.64
65995;HTU21D;52764;51.036;5.852;2022-11-21T14:02:04;11.42;66.98
65995;HTU21D;52764;51.036;5.852;2022-11-21T14:07:27;11.44;68.15
65995;HTU21D;52764;51.036;5.852;2022-11-21T14:10:00;11.45;68.09
65995;HTU21D;52764;51.036;5.852;2022-11-21T14:12:36;11.42;68.10
65995;HTU21D;52764;51.036;5.852;2022-11-21T14:17:56;11.42;68.42
65995;HTU21D;52764;51.036;5.852;2022-11-21T14:20:29;11.38;68.61
65995;HTU21D;52764;51.036;5.852;2022-11-21T14:23:04;-18.19;69.16
65995;HTU21D;52764;51.036;5.852;2022-11-21T14:28:20;11.54;68.90
65995;HTU21D;52764;51.036;5.852;2022-11-21T14:30:47;10.85;68.91
65995;HTU21D;52764;51.036;5.852;2022-11-21T14:33:34;11.60;68.58
65995;HTU21D;52764;51.036;5.852;2022-11-21T14:38:44;11.43;68.62
65995;HTU21D;52764;51.036;5.852;2022-11-21T14:46:30;11.27;69.22
65995;HTU21D;52764;51.036;5.852;2022-11-21T14:54:18;11.34;69.39
65995;HTU21D;52764;51.036;5.852;2022-11-21T14:56:58;11.37;69.33
65995;HTU21D;52764;51.036;5.852;2022-11-21T14:59:29;11.39;69.33
65995;HTU21D;52764;51.036;5.852;2022-11-21T15:02:02;11.38;69.31
65995;HTU21D;52764;51.036;5.852;2022-11-21T15:04:31;11.88;69.42
65995;HTU21D;52764;51.036;5.852;2022-11-21T15:06:57;11.33;69.65
65995;HTU21D;52764;51.036;5.852;2022-11-21T15:09:23;11.33;69.55
65995;HTU21D;52764;51.036;5.852;2022-11-21T15:11:58;11.32;69.62
65995;HTU21D;52764;51.036;5.852;2022-11-21T15:14:32;11.24;69.93
65995;HTU21D;52764;51.036;5.852;2022-11-21T15:17:06;11.16;70.29
65995;HTU21D;52764;51.036;5.852;2022-11-21T15:19:33;11.17;70.40
65995;HTU21D;52764;51.036;5.852;2022-11-21T15:22:01;11.16;70.42
65995;HTU21D;52764;51.036;5.852;2022-11-21T15:24:30;11.14;70.41
65995;HTU21D;52764;51.036;5.852;2022-11-21T15:26:57;11.13;70.44
65995;HTU21D;52764;51.036;5.852;2022-11-21T15:29:23;11.17;70.26
65995;HTU21D;52764;51.036;5.852;2022-11-21T15:32:08;11.14;70.19
65995;HTU21D;52764;51.036;5.852;2022-11-21T15:34:34;11.08;68.04
65995;HTU21D;52764;51.036;5.852;2022-11-21T15:37:11;11.05;70.19
65995;HTU21D;52764;51.036;5.852;2022-11-21T15:39:44;10.99;70.42
65995;HTU21D;52764;51.036;5.852;2022-11-21T15:47:41;10.93;70.90
65995;HTU21D;52764;51.036;5.852;2022-11-21T15:50:07;10.93;70.99
65995;HTU21D;52764;51.036;5.852;2022-11-21T15:52:46;10.97;70.91
65995;HTU21D;52764;51.036;5.852;2022-11-21T15:55:19;10.93;70.84
65995;HTU21D;52764;51.036;5.852;2022-11-21T15:57:45;10.88;71.06
65995;HTU21D;52764;51.036;5.852;2022-11-21T16:00:11;10.83;71.32
65995;HTU21D;52764;51.036;5.852;2022-11-21T16:02:37;10.81;71.38
65995;HTU21D;52764;51.036;5.852;2022-11-21T16:05:03;10.71;71.35
65995;HTU21D;52764;51.036;5.852;2022-11-21T16:07:28;10.66;71.35
65995;HTU21D;52764;51.036;5.852;2022-11-21T16:09:54;10.55;71.54
65995;HTU21D;52764;51.036;5.852;2022-11-21T16:12:20;10.55;71.72
65995;HTU21D;52764;51.036;5.852;2022-11-21T16:14:46;10.57;71.99
65995;HTU21D;52764;51.036;5.852;2022-11-21T16:17:12;10.62;71.91
65995;HTU21D;52764;51.036;5.852;2022-11-21T16:19:38;10.73;71.93
65995;HTU21D;52764;51.036;5.852;2022-11-21T16:22:04;10.84;71.96
65995;HTU21D;52764;51.036;5.852;2022-11-21T16:24:29;10.93;71.74
65995;HTU21D;52764;51.036;5.852;2022-11-21T16:26:55;10.97;71.55
65995;HTU21D;52764;51.036;5.852;2022-11-21T16:29:21;10.97;71.51
65995;HTU21D;52764;51.036;5.852;2022-11-21T16:31:49;10.86;71.44
65995;HTU21D;52764;51.036;5.852;2022-11-21T16:34:18;10.80;71.49
65995;HTU21D;52764;51.036;5.852;2022-11-21T16:36:44;10.73;71.60
65995;HTU21D;52764;51.036;5.852;2022-11-21T16:39:10;10.60;71.87
65995;HTU21D;52764;51.036;5.852;2022-11-21T16:41:35;10.54;72.03
65995;HTU21D;52764;51.036;5.852;2022-11-21T16:44:02;10.42;72.29
65995;HTU21D;52764;51.036;5.852;2022-11-21T16:46:27;10.31;72.65
65995;HTU21D;52764;51.036;5.852;2022-11-21T16:49:01;10.25;72.83
65995;HTU21D;52764;51.036;5.852;2022-11-21T16:51:28;10.28;72.64
65995;HTU21D;52764;51.036;5.852;2022-11-21T16:53:56;-20.48;74.67
65995;HTU21D;52764;51.036;5.852;2022-11-21T16:56:21;10.27;72.77
65995;HTU21D;52764;51.036;5.852;2022-11-21T16:58:47;10.16;72.73
65995;HTU21D;52764;51.036;5.852;2022-11-21T17:01:16;10.25;72.74
65995;HTU21D;52764;51.036;5.852;2022-11-21T17:03:44;10.24;72.74
65995;HTU21D;52764;51.036;5.852;2022-11-21T17:06:12;10.22;72.91
65995;HTU21D;52764;51.036;5.852;2022-11-21T17:08:38;10.19;72.76
65995;HTU21D;52764;51.036;5.852;2022-11-21T17:11:21;10.18;73.09
65995;HTU21D;52764;51.036;5.852;2022-11-21T17:13:49;10.16;73.09
65995;HTU21D;52764;51.036;5.852;2022-11-21T17:16:18;10.09;73.20
65995;HTU21D;52764;51.036;5.852;2022-11-21T17:18:44;10.09;73.32
65995;HTU21D;52764;51.036;5.852;2022-11-21T17:21:13;10.12;73.18
65995;HTU21D;52764;51.036;5.852;2022-11-21T17:23:43;10.15;72.96
65995;HTU21D;52764;51.036;5.852;2022-11-21T17:26:11;10.07;73.03
65995;HTU21D;52764;51.036;5.852;2022-11-21T17:28:38;10.09;73.17
65995;HTU21D;52764;51.036;5.852;2022-11-21T17:31:12;10.06;73.15
65995;HTU21D;52764;51.036;5.852;2022-11-21T17:33:38;10.03;73.45
65995;HTU21D;52764;51.036;5.852;2022-11-21T17:36:06;10.01;73.60
65995;HTU21D;52764;51.036;5.852;2022-11-21T17:38:35;9.33;73.61
65995;HTU21D;52764;51.036;5.852;2022-11-21T17:41:04;-20.85;73.61
65995;HTU21D;52764;51.036;5.852;2022-11-21T17:43:31;10.10;73.46
65995;HTU21D;52764;51.036;5.852;2022-11-21T17:46:02;10.11;73.35
65995;HTU21D;52764;51.036;5.852;2022-11-21T17:48:28;10.12;73.20
65995;HTU21D;52764;51.036;5.852;2022-11-21T17:51:00;10.16;72.96
65995;HTU21D;52764;51.036;5.852;2022-11-21T17:53:33;10.11;72.98
65995;HTU21D;52764;51.036;5.852;2022-11-21T17:56:01;10.13;72.88
65995;HTU21D;52764;51.036;5.852;2022-11-21T17:58:28;10.10;72.98
65995;HTU21D;52764;51.036;5.852;2022-11-21T18:00:59;10.11;72.96
65995;HTU21D;52764;51.036;5.852;2022-11-21T18:03:26;10.12;72.89
65995;HTU21D;52764;51.036;5.852;2022-11-21T18:06:19;10.07;58.17
65995;HTU21D;52764;51.036;5.852;2022-11-21T18:08:46;10.00;74.19